createdAt,value
2023-03-19T00:01:50.028Z,1.00
2023-03-19T00:04:18.319Z,1.00
2023-03-19T00:06:47.428Z,1.00
2023-03-19T00:09:15.779Z,1.00
2023-03-19T00:11:46.995Z,1.00
2023-03-19T00:14:18.356Z,1.00
2023-03-19T00:16:46.849Z,1.00
2023-03-19T00:19:15.711Z,1.00
2023-03-19T00:21:43.939Z,1.00
2023-03-19T00:24:13.047Z,1.00
2023-03-19T00:26:47.864Z,1.00
2023-03-19T00:29:17.666Z,1.00
2023-03-19T00:31:46.475Z,3.40
2023-03-19T00:34:14.721Z,6.40
2023-03-19T00:36:42.931Z,8.80
2023-03-19T00:39:11.125Z,10.30
2023-03-19T00:41:39.506Z,11.70
2023-03-19T00:44:08.059Z,5.80
2023-03-19T00:46:37.775Z,9.30
2023-03-19T00:49:06.113Z,11.20
2023-03-19T00:51:34.273Z,84.70
2023-03-19T00:54:03.049Z,99.90
2023-03-19T00:56:31.459Z,99.90
2023-03-19T00:58:59.889Z,99.90
2023-03-19T01:01:28.579Z,99.90
2023-03-19T01:03:59.203Z,99.90
2023-03-19T01:06:27.470Z,99.90
2023-03-19T01:08:55.714Z,99.90
2023-03-19T01:11:24.066Z,99.90
2023-03-19T01:13:52.259Z,99.90
2023-03-19T01:16:20.433Z,99.90
2023-03-19T01:18:48.823Z,99.90
2023-03-19T01:21:18.643Z,99.90
2023-03-19T01:23:46.890Z,99.90
2023-03-19T01:26:15.396Z,99.90
2023-03-19T01:28:43.623Z,99.90
2023-03-19T01:31:12.240Z,99.90
2023-03-19T01:33:40.746Z,99.90
2023-03-19T01:36:10.225Z,99.90
2023-03-19T01:38:40.224Z,99.90
2023-03-19T01:41:08.881Z,99.90
2023-03-19T01:43:58.929Z,99.90
2023-03-19T01:46:30.290Z,99.90
2023-03-19T01:49:01.509Z,99.90
2023-03-19T01:51:33.768Z,99.90
2023-03-19T01:54:07.640Z,99.90
2023-03-19T01:56:39.619Z,99.90
2023-03-19T01:59:12.469Z,99.90
2023-03-19T02:01:49.373Z,99.90
2023-03-19T02:04:17.870Z,99.90
2023-03-19T02:06:46.749Z,99.90
2023-03-19T02:09:18.473Z,99.90
2023-03-19T02:11:47.324Z,99.90
2023-03-19T02:14:15.513Z,99.90
2023-03-19T02:16:43.969Z,99.90
2023-03-19T02:19:20.160Z,99.90
2023-03-19T02:21:49.003Z,99.90
2023-03-19T02:24:27.355Z,99.90
2023-03-19T02:26:58.957Z,99.90
2023-03-19T02:29:27.372Z,99.90
2023-03-19T02:31:55.558Z,99.90
2023-03-19T02:34:36.944Z,99.90
2023-03-19T02:37:10.209Z,99.90
2023-03-19T02:39:45.117Z,99.90
2023-03-19T02:42:17.052Z,99.90
2023-03-19T02:44:46.279Z,99.90
2023-03-19T02:47:14.537Z,99.90
2023-03-19T02:49:42.888Z,99.90
2023-03-19T02:52:11.711Z,99.90
2023-03-19T02:54:40.005Z,99.90
2023-03-19T02:57:08.443Z,99.90
2023-03-19T02:59:40.557Z,99.90
2023-03-19T03:02:10.768Z,99.90
2023-03-19T03:04:47.494Z,99.90
2023-03-19T03:07:15.802Z,99.90
2023-03-19T03:09:44.056Z,99.90
2023-03-19T03:12:14.661Z,99.90
2023-03-19T03:14:45.920Z,99.90
2023-03-19T03:17:14.392Z,99.90
2023-03-19T03:19:42.681Z,99.90
2023-03-19T03:22:13.664Z,99.90
2023-03-19T03:24:42.022Z,99.90
2023-03-19T03:27:10.546Z,99.90
2023-03-19T03:29:38.853Z,99.90
2023-03-19T03:32:09.246Z,99.90
2023-03-19T03:34:37.996Z,99.90
2023-03-19T03:37:06.749Z,99.90
2023-03-19T03:39:35.026Z,99.90
2023-03-19T03:42:03.482Z,99.90
2023-03-19T03:44:31.879Z,99.90
2023-03-19T03:47:00.135Z,99.90
2023-03-19T03:49:29.849Z,99.90
2023-03-19T03:51:58.166Z,99.90
2023-03-19T03:54:26.488Z,99.90
2023-03-19T03:56:54.728Z,99.90
2023-03-19T03:59:22.916Z,99.90
2023-03-19T04:01:51.319Z,99.90
2023-03-19T04:04:20.253Z,99.90
2023-03-19T04:06:49.909Z,99.90
2023-03-19T04:09:18.285Z,99.90
2023-03-19T04:11:46.718Z,99.90
2023-03-19T04:14:14.939Z,99.90
2023-03-19T04:16:44.203Z,99.90
2023-03-19T04:19:12.554Z,99.90
2023-03-19T04:21:42.821Z,99.90
2023-03-19T04:24:12.637Z,99.90
2023-03-19T04:26:47.288Z,99.90
2023-03-19T04:29:18.661Z,99.90
2023-03-19T04:31:47.005Z,99.90
2023-03-19T04:34:15.242Z,99.90
2023-03-19T04:36:43.411Z,99.90
2023-03-19T04:39:13.031Z,99.90
2023-03-19T04:41:41.400Z,99.90
2023-03-19T04:44:11.611Z,99.90
2023-03-19T04:46:39.991Z,99.90
2023-03-19T04:49:08.247Z,99.90
2023-03-19T04:51:36.544Z,99.90
2023-03-19T04:54:05.463Z,99.90
2023-03-19T04:56:35.184Z,99.90
2023-03-19T04:59:03.478Z,99.90
2023-03-19T05:01:33.025Z,99.90
2023-03-19T05:04:01.859Z,99.90
2023-03-19T05:06:31.381Z,99.90
2023-03-19T05:12:28.391Z,99.90
2023-03-19T05:14:56.628Z,99.90
2023-03-19T05:17:25.226Z,99.90
2023-03-19T05:19:53.902Z,99.90
2023-03-19T05:22:22.405Z,99.90
2023-03-19T05:24:50.800Z,99.90
2023-03-19T05:27:19.144Z,99.90
2023-03-19T05:29:48.767Z,99.90
2023-03-19T05:32:17.036Z,99.90
2023-03-19T05:34:45.448Z,99.90
2023-03-19T05:37:13.859Z,99.90
2023-03-19T05:39:42.185Z,99.90
2023-03-19T05:42:10.767Z,99.90
2023-03-19T05:44:38.981Z,99.90
2023-03-19T05:47:09.897Z,99.90
2023-03-19T05:49:41.028Z,99.90
2023-03-19T05:52:09.466Z,99.90
2023-03-19T05:54:37.743Z,99.90
2023-03-19T05:57:06.303Z,99.90
2023-03-19T05:59:34.638Z,99.90
2023-03-19T06:02:03.076Z,99.90
2023-03-19T06:04:32.852Z,99.90
2023-03-19T06:07:01.428Z,99.90
2023-03-19T06:09:29.846Z,99.90
2023-03-19T06:12:01.156Z,99.90
2023-03-19T06:14:29.375Z,99.90
2023-03-19T06:16:57.809Z,99.90
2023-03-19T06:19:26.241Z,99.90
2023-03-19T06:21:56.037Z,99.90
2023-03-19T06:24:24.372Z,99.90
2023-03-19T06:26:52.986Z,99.90
2023-03-19T06:29:21.362Z,99.90
2023-03-19T06:31:49.738Z,99.90
2023-03-19T06:34:18.769Z,99.90
2023-03-19T06:36:46.982Z,99.90
2023-03-19T06:39:16.700Z,99.90
2023-03-19T06:41:47.807Z,99.90
2023-03-19T06:44:16.493Z,99.90
2023-03-19T06:46:44.848Z,99.90
2023-03-19T06:49:13.140Z,99.90
2023-03-19T06:51:41.369Z,99.90
2023-03-19T06:54:09.633Z,99.90
2023-03-19T06:56:39.517Z,99.90
2023-03-19T06:59:08.103Z,99.90
2023-03-19T07:01:36.524Z,99.90
2023-03-19T07:04:04.915Z,99.90
2023-03-19T07:06:33.677Z,99.90
2023-03-19T07:09:01.938Z,99.90
2023-03-19T07:11:30.202Z,99.90
2023-03-19T07:13:59.799Z,99.90
2023-03-19T07:16:29.029Z,99.90
2023-03-19T07:18:57.515Z,99.90
2023-03-19T07:21:25.948Z,99.90
2023-03-19T07:23:54.238Z,99.90
2023-03-19T07:26:25.055Z,92.50
2023-03-19T07:28:53.280Z,72.70
2023-03-19T07:31:22.954Z,47.10
2023-03-19T07:33:51.425Z,36.80
2023-03-19T07:36:19.608Z,31.60
2023-03-19T07:38:47.786Z,27.80
2023-03-19T07:41:23.806Z,28.90
2023-03-19T07:43:52.144Z,21.70
2023-03-19T07:46:31.883Z,13.40
2023-03-19T07:49:05.013Z,9.40
2023-03-19T07:51:33.310Z,6.30
2023-03-19T07:54:16.835Z,2.80
2023-03-19T07:57:13.707Z,1.00
2023-03-19T08:03:08.909Z,1.00
2023-03-19T08:05:40.171Z,1.00
2023-03-19T08:08:09.296Z,1.00
2023-03-19T08:10:42.178Z,1.00
2023-03-19T08:13:10.593Z,1.00
2023-03-19T08:15:38.812Z,1.00
2023-03-19T08:18:24.689Z,1.00
2023-03-19T08:21:06.834Z,1.00
2023-03-19T08:23:36.693Z,1.00
2023-03-19T08:26:14.732Z,1.00
2023-03-19T08:28:46.331Z,1.00
2023-03-19T08:31:15.790Z,1.00
2023-03-19T08:33:49.161Z,1.00
2023-03-19T08:36:18.586Z,1.00
2023-03-19T08:38:48.910Z,1.00
2023-03-19T08:41:43.402Z,1.00
2023-03-19T08:44:20.843Z,1.00
2023-03-19T08:46:50.814Z,1.00
2023-03-19T08:49:20.887Z,1.00
2023-03-19T08:51:49.932Z,1.00
2023-03-19T08:54:20.683Z,1.00
2023-03-19T08:57:13.140Z,1.00
2023-03-19T08:59:41.568Z,1.00
2023-03-19T09:02:11.912Z,1.00
2023-03-19T09:04:47.475Z,1.00
2023-03-19T09:07:17.543Z,1.00
2023-03-19T09:09:57.708Z,1.00
2023-03-19T09:12:30.202Z,1.00
2023-03-19T09:14:59.792Z,1.00
2023-03-19T09:17:28.110Z,1.00
2023-03-19T09:19:58.869Z,1.00
2023-03-19T09:22:28.617Z,1.00
2023-03-19T09:24:56.924Z,1.00
2023-03-19T09:27:28.743Z,1.00
2023-03-19T09:29:58.380Z,1.00
2023-03-19T09:32:37.477Z,1.00
2023-03-19T09:35:10.086Z,1.00
2023-03-19T09:37:38.566Z,1.00
2023-03-19T09:40:09.967Z,1.00
2023-03-19T09:42:55.872Z,1.00
2023-03-19T09:45:29.323Z,1.00
2023-03-19T09:51:43.782Z,1.00
2023-03-19T09:54:39.973Z,1.00
2023-03-19T09:57:14.523Z,1.00
2023-03-19T09:59:43.969Z,1.00
2023-03-19T10:02:34.336Z,1.00
2023-03-19T10:08:55.767Z,1.00
2023-03-19T10:11:38.715Z,1.00
2023-03-19T10:14:37.489Z,1.00
2023-03-19T10:17:28.522Z,1.00
2023-03-19T10:20:07.364Z,1.00
2023-03-19T10:22:39.910Z,1.00
2023-03-19T10:25:16.822Z,1.00
2023-03-19T10:28:05.620Z,1.00
2023-03-19T10:30:36.956Z,1.00
2023-03-19T10:33:19.881Z,1.00
2023-03-19T10:35:53.426Z,1.00
2023-03-19T10:38:25.627Z,1.00
2023-03-19T10:41:24.625Z,1.00
2023-03-19T10:46:50.622Z,1.00
2023-03-19T10:49:23.662Z,1.00
2023-03-19T10:51:59.868Z,1.00
2023-03-19T10:54:31.990Z,1.00
2023-03-19T10:57:02.493Z,1.00
2023-03-19T10:59:39.587Z,1.00
2023-03-19T11:02:20.402Z,1.00
2023-03-19T11:05:08.784Z,1.00
2023-03-19T11:07:38.713Z,1.00
2023-03-19T11:10:23.968Z,1.00
2023-03-19T11:13:03.878Z,1.00
2023-03-19T11:15:37.510Z,1.00
2023-03-19T11:18:20.685Z,1.00
2023-03-19T11:20:59.857Z,1.00
2023-03-19T11:23:31.899Z,1.00
2023-03-19T11:26:07.607Z,1.00
2023-03-19T11:29:09.414Z,1.00
2023-03-19T11:31:45.599Z,1.00
2023-03-19T11:34:30.724Z,1.00
2023-03-19T11:37:13.619Z,1.00
2023-03-19T11:39:50.093Z,1.00
2023-03-19T11:43:05.670Z,1.00
2023-03-19T11:46:10.223Z,1.00
2023-03-19T11:49:19.676Z,1.00
2023-03-19T11:52:03.436Z,1.00
2023-03-19T11:58:34.405Z,1.00
2023-03-19T12:01:10.542Z,1.00
2023-03-19T12:04:38.512Z,1.00
2023-03-19T12:07:22.070Z,1.00
2023-03-19T12:10:01.500Z,1.00
2023-03-19T12:12:36.349Z,1.00
2023-03-19T12:15:42.198Z,1.00
2023-03-19T12:21:00.637Z,1.00
2023-03-19T12:24:01.365Z,1.00
2023-03-19T12:26:41.755Z,1.00
2023-03-19T12:32:25.562Z,1.00
2023-03-19T12:35:04.615Z,1.00
2023-03-19T12:37:38.438Z,1.00
2023-03-19T12:43:39.772Z,1.00
2023-03-19T12:46:14.821Z,1.00
2023-03-19T12:48:51.803Z,1.00
2023-03-19T12:51:33.808Z,1.00
2023-03-19T12:54:20.341Z,1.00
2023-03-19T12:57:03.896Z,1.00
2023-03-19T12:59:48.593Z,1.00
2023-03-19T13:02:39.636Z,1.00
2023-03-19T13:05:30.083Z,1.00
2023-03-19T13:08:11.309Z,1.00
2023-03-19T13:10:40.656Z,1.00
2023-03-19T13:13:42.714Z,1.00
2023-03-19T13:16:43.939Z,1.00
2023-03-19T13:19:20.065Z,1.00
2023-03-19T13:21:54.724Z,1.00
2023-03-19T13:24:39.389Z,1.00
2023-03-19T13:27:13.362Z,1.00
2023-03-19T13:30:00.770Z,1.00
2023-03-19T13:32:41.779Z,1.00
2023-03-19T13:35:29.185Z,1.00
2023-03-19T13:38:04.779Z,1.00
2023-03-19T13:41:32.964Z,1.00
2023-03-19T13:47:41.033Z,1.00
2023-03-19T13:50:28.539Z,1.00
2023-03-19T13:53:37.867Z,1.00
2023-03-19T13:56:30.459Z,1.00
2023-03-19T14:02:57.646Z,1.00
2023-03-19T14:12:33.214Z,1.00
2023-03-19T14:15:27.651Z,1.00
2023-03-19T14:18:03.328Z,1.00
2023-03-19T14:20:52.305Z,1.00
2023-03-19T14:23:43.029Z,1.00
2023-03-19T14:26:20.326Z,1.00
2023-03-19T14:29:14.976Z,1.00
2023-03-19T14:34:42.327Z,1.00
2023-03-19T14:37:35.194Z,1.00
2023-03-19T14:40:23.245Z,1.00
2023-03-19T14:43:02.883Z,1.00
2023-03-19T14:46:04.807Z,1.00
2023-03-19T14:49:42.306Z,1.00
2023-03-19T14:52:29.014Z,1.00
2023-03-19T14:55:05.078Z,1.00
2023-03-19T14:57:43.889Z,1.00
2023-03-19T15:00:18.718Z,1.00
2023-03-19T15:05:41.341Z,1.00
2023-03-19T15:08:30.038Z,1.00
2023-03-19T15:11:28.728Z,1.00
2023-03-19T15:14:14.512Z,1.00
2023-03-19T15:17:03.662Z,1.00
2023-03-19T15:19:34.168Z,1.00
2023-03-19T15:22:09.518Z,1.00
2023-03-19T15:24:40.301Z,1.00
2023-03-19T15:27:23.903Z,1.00
2023-03-19T15:29:53.637Z,1.00
2023-03-19T15:33:09.173Z,1.00
2023-03-19T15:35:33.926Z,1.00
2023-03-19T15:38:14.345Z,1.00
2023-03-19T15:40:51.657Z,1.00
2023-03-19T15:43:26.362Z,1.00
2023-03-19T15:46:02.761Z,1.00
2023-03-19T15:48:45.449Z,1.00
2023-03-19T15:51:16.094Z,1.00
2023-03-19T15:53:47.308Z,1.00
2023-03-19T15:56:19.245Z,1.00
2023-03-19T15:59:05.644Z,1.00
2023-03-19T16:01:37.401Z,1.00
2023-03-19T16:04:12.067Z,1.00
2023-03-19T16:06:43.841Z,1.00
2023-03-19T16:09:47.225Z,1.00
2023-03-19T16:12:42.954Z,1.00
2023-03-19T16:15:35.649Z,1.00
2023-03-19T16:18:57.304Z,1.00
2023-03-19T16:21:51.620Z,1.00
2023-03-19T16:24:27.444Z,1.00
2023-03-19T16:26:59.012Z,1.00
2023-03-19T16:29:30.992Z,1.00
2023-03-19T16:32:03.423Z,1.00
2023-03-19T16:37:45.656Z,1.00
2023-03-19T16:40:47.658Z,1.00
2023-03-19T16:43:37.163Z,1.00
2023-03-19T16:46:13.490Z,1.00
2023-03-19T16:48:43.079Z,1.00
2023-03-19T16:51:18.178Z,1.00
2023-03-19T16:53:49.430Z,1.00
2023-03-19T16:56:19.851Z,1.00
2023-03-19T16:58:50.538Z,1.00
2023-03-19T17:01:58.651Z,1.00
2023-03-19T17:04:54.652Z,1.00
2023-03-19T17:07:54.929Z,1.00
2023-03-19T17:10:28.954Z,1.00
2023-03-19T17:13:03.702Z,1.00
2023-03-19T17:15:48.871Z,1.00
2023-03-19T17:18:37.326Z,1.00
2023-03-19T17:21:15.431Z,1.00
2023-03-19T17:24:02.039Z,1.00
2023-03-19T17:27:26.179Z,1.00
2023-03-19T17:30:00.660Z,1.00
2023-03-19T17:32:32.950Z,1.00
2023-03-19T17:35:25.817Z,1.00
2023-03-19T17:38:04.334Z,1.00
2023-03-19T17:40:34.622Z,1.00
2023-03-19T17:43:06.532Z,1.00
2023-03-19T17:45:42.947Z,1.00
2023-03-19T17:48:22.786Z,1.00
2023-03-19T17:50:59.794Z,1.00
2023-03-19T17:53:30.557Z,1.00
2023-03-19T17:56:00.514Z,1.00
2023-03-19T17:58:31.602Z,1.00
2023-03-19T18:01:08.111Z,1.00
2023-03-19T18:03:42.299Z,1.00
2023-03-19T18:06:21.673Z,1.00
2023-03-19T18:14:40.619Z,1.00
2023-03-19T18:17:11.675Z,1.00
2023-03-19T18:19:41.717Z,1.00
2023-03-19T18:22:17.324Z,1.00
2023-03-19T18:24:48.119Z,1.00
2023-03-19T18:27:16.933Z,1.00
2023-03-19T18:29:45.823Z,1.00
2023-03-19T18:32:17.522Z,1.00
2023-03-19T18:35:25.716Z,1.00
2023-03-19T18:38:27.693Z,1.00
2023-03-19T18:40:56.028Z,1.00
2023-03-19T18:43:29.964Z,1.00
2023-03-19T18:46:01.195Z,1.00
2023-03-19T18:48:33.236Z,1.00
2023-03-19T18:51:01.972Z,1.00
2023-03-19T18:53:59.805Z,1.00
2023-03-19T18:56:41.828Z,1.00
2023-03-19T19:00:02.268Z,1.00
2023-03-19T19:02:39.597Z,1.00
2023-03-19T19:05:30.220Z,1.00
2023-03-19T19:08:00.954Z,1.00
2023-03-19T19:10:36.219Z,1.00
2023-03-19T19:13:07.950Z,1.00
2023-03-19T19:15:38.435Z,1.00
2023-03-19T19:18:18.368Z,1.00
2023-03-19T19:20:49.575Z,1.00
2023-03-19T19:23:34.488Z,1.00
2023-03-19T19:26:08.430Z,1.00
2023-03-19T19:28:52.591Z,1.00
2023-03-19T19:34:26.235Z,1.00
2023-03-19T19:37:04.019Z,1.00
2023-03-19T19:42:47.654Z,1.00
2023-03-19T19:45:32.782Z,1.00
2023-03-19T19:48:01.544Z,1.00
2023-03-19T19:50:52.045Z,1.00
2023-03-19T19:53:24.009Z,1.00
2023-03-19T19:55:55.474Z,1.00
2023-03-19T19:58:31.775Z,1.00
2023-03-19T20:01:08.494Z,1.00
2023-03-19T20:06:48.649Z,1.00
2023-03-19T20:09:17.255Z,1.00
2023-03-19T20:11:48.598Z,1.00
2023-03-19T20:14:18.436Z,1.00
2023-03-19T20:16:47.328Z,1.00
2023-03-19T20:19:20.382Z,1.00
2023-03-19T20:21:59.462Z,1.00
2023-03-19T20:24:28.442Z,1.00
2023-03-19T20:30:15.797Z,1.00
2023-03-19T20:32:45.550Z,1.00
2023-03-19T20:35:18.586Z,1.00
2023-03-19T20:37:48.007Z,1.00
2023-03-19T20:40:16.927Z,1.00
2023-03-19T20:42:48.784Z,1.00
2023-03-19T20:45:21.754Z,1.00
2023-03-19T20:47:53.104Z,1.00
2023-03-19T20:50:24.872Z,1.00
2023-03-19T20:52:55.563Z,1.00
2023-03-19T20:55:27.122Z,1.00
2023-03-19T20:57:56.172Z,1.00
2023-03-19T21:00:28.278Z,1.00
2023-03-19T21:02:58.179Z,1.00
2023-03-19T21:05:34.933Z,1.00
2023-03-19T21:08:05.588Z,1.00
2023-03-19T21:10:37.630Z,1.00
2023-03-19T21:13:13.756Z,1.00
2023-03-19T21:15:44.266Z,1.00
2023-03-19T21:18:12.630Z,1.00
2023-03-19T21:20:43.908Z,1.00
2023-03-19T21:23:21.099Z,1.00
2023-03-19T21:25:50.273Z,5.00
2023-03-19T21:28:25.443Z,14.00
2023-03-19T21:30:58.703Z,18.30
2023-03-19T21:33:28.686Z,23.60
2023-03-19T21:35:58.277Z,27.10
2023-03-19T21:38:26.953Z,32.40
2023-03-19T21:40:58.148Z,33.00
2023-03-19T21:43:33.138Z,41.50
2023-03-19T21:46:23.134Z,57.70
2023-03-19T21:48:54.821Z,70.60
2023-03-19T21:51:25.236Z,85.50
2023-03-19T21:53:57.009Z,91.70
2023-03-19T21:56:32.530Z,97.50
2023-03-19T21:59:03.395Z,96.30
2023-03-19T22:01:38.808Z,88.60
2023-03-19T22:04:07.681Z,87.50
2023-03-19T22:06:45.458Z,89.50
2023-03-19T22:09:15.425Z,91.90
2023-03-19T22:11:46.052Z,90.00
2023-03-19T22:14:19.401Z,83.40
2023-03-19T22:16:52.743Z,81.20
2023-03-19T22:19:22.544Z,80.10
2023-03-19T22:21:51.043Z,71.10
2023-03-19T22:24:19.290Z,67.70
2023-03-19T22:26:50.119Z,65.70
2023-03-19T22:29:31.547Z,67.10
2023-03-19T22:32:01.500Z,62.30
2023-03-19T22:34:29.877Z,67.40
2023-03-19T22:36:58.122Z,63.50
2023-03-19T22:39:33.870Z,65.00
2023-03-19T22:42:02.613Z,67.10
2023-03-19T22:44:33.207Z,58.00
2023-03-19T22:47:06.931Z,55.30
2023-03-19T22:49:35.452Z,53.30
2023-03-19T22:52:03.703Z,57.80
2023-03-19T22:54:32.694Z,61.70
2023-03-19T22:57:01.206Z,69.80
2023-03-19T22:59:29.555Z,74.40
2023-03-19T23:01:58.302Z,69.70
2023-03-19T23:04:30.689Z,65.00
2023-03-19T23:07:00.425Z,62.60
2023-03-19T23:10:08.810Z,62.70
2023-03-19T23:12:41.709Z,89.70
2023-03-19T23:15:10.806Z,60.20
2023-03-19T23:17:39.499Z,58.00
2023-03-19T23:20:15.730Z,55.30
2023-03-19T23:22:44.345Z,54.50
2023-03-19T23:25:17.618Z,54.40
2023-03-19T23:27:47.166Z,56.80
2023-03-19T23:30:23.752Z,55.20
2023-03-19T23:32:52.520Z,53.10
2023-03-19T23:35:25.643Z,49.00
2023-03-19T23:37:56.488Z,50.50
2023-03-19T23:40:28.390Z,52.50
2023-03-19T23:42:58.107Z,51.70
2023-03-19T23:45:33.204Z,50.50
2023-03-19T23:48:04.897Z,51.80
2023-03-19T23:50:35.270Z,52.20
2023-03-19T23:53:03.703Z,53.00
2023-03-19T23:55:32.929Z,54.50
2023-03-19T23:58:02.608Z,58.90
